Time;durP1;ratioP1;P1;durP2;ratioP2;P2;SDS_P1;SDS_P2;PMS_P1;PMS_P2;Temp;Humidity;BMP_temperature;BMP_pressure;BME280_temperature;BME280_humidity;BME280_pressure;Samples;Min_cycle;Max_cycle;Signal;HPM_P1;HPM_P2
2023/04/09 00:01:54;;;;;;;53.97;28.65;;;;;;;-146.26;100.00;59860.63;4985511;28;20050;-72
2023/04/09 00:04:21;;;;;;;56.40;32.38;;;;;;;-146.26;100.00;59860.63;4987051;28;20026;-71
2023/04/09 00:06:47;;;;;;;54.00;30.33;;;;;;;-146.26;100.00;59860.63;4986617;28;20026;-72
2023/04/09 00:09:12;;;;;;;37.20;28.60;;;;;;;-146.26;100.00;59860.63;4988757;28;20130;-71
2023/04/09 00:11:38;;;;;;;40.33;27.65;;;;;;;-146.26;100.00;59860.63;4987397;28;20045;-71
2023/04/09 00:14:03;;;;;;;64.70;49.40;;;;;;;-146.26;100.00;59860.63;4986777;28;20045;-71
2023/04/09 00:16:29;;;;;;;50.17;30.90;;;;;;;-146.26;100.00;59860.63;4988067;28;20467;-72
2023/04/09 00:18:55;;;;;;;43.08;29.02;;;;;;;-146.26;100.00;59860.63;4987264;28;20165;-71
2023/04/09 00:21:20;;;;;;;48.13;31.88;;;;;;;-146.26;100.00;59860.63;4987744;28;20795;-72
2023/04/09 00:23:46;;;;;;;47.88;29.55;;;;;;;-146.26;100.00;59860.63;4988506;28;20042;-72
2023/04/09 00:26:11;;;;;;;48.97;30.17;;;;;;;-146.26;100.00;59860.63;4987452;28;20046;-74
2023/04/09 00:28:37;;;;;;;48.63;31.10;;;;;;;-146.26;100.00;59860.63;4988576;28;20528;-71
2023/04/09 00:31:02;;;;;;;43.90;29.10;;;;;;;-146.26;100.00;59860.63;4987356;28;20092;-73
2023/04/09 00:33:28;;;;;;;51.67;30.75;;;;;;;-146.26;100.00;59860.63;4988717;28;20041;-75
2023/04/09 00:35:53;;;;;;;43.92;28.63;;;;;;;-146.26;100.00;59860.63;4986953;28;20574;-74
2023/04/09 00:38:19;;;;;;;45.65;30.48;;;;;;;-146.26;100.00;59860.63;4982399;28;20039;-72
2023/04/09 00:40:48;;;;;;;53.05;35.13;;;;;;;-146.26;100.00;59860.63;4982577;28;20042;-73
2023/04/09 00:43:14;;;;;;;46.38;33.80;;;;;;;-146.26;100.00;59860.63;4988925;28;20034;-74
2023/04/09 00:45:40;;;;;;;54.30;36.10;;;;;;;-146.26;100.00;59860.63;4988372;28;20088;-72
2023/04/09 00:48:06;;;;;;;60.05;40.08;;;;;;;-146.26;100.00;59860.63;4987800;28;20545;-71
2023/04/09 00:50:31;;;;;;;86.38;57.15;;;;;;;-146.26;100.00;59860.63;4987877;28;20125;-73
2023/04/09 00:52:57;;;;;;;60.85;41.35;;;;;;;-146.26;100.00;59860.63;4988140;28;20038;-72
2023/04/09 00:55:22;;;;;;;67.53;34.88;;;;;;;-146.26;100.00;59860.63;4984353;28;20026;-72
2023/04/09 00:57:48;;;;;;;51.60;31.15;;;;;;;-146.26;100.00;59860.63;4984222;28;20678;-72
2023/04/09 01:00:14;;;;;;;49.25;31.65;;;;;;;-146.26;100.00;59860.63;4983063;28;20059;-71
2023/04/09 01:02:40;;;;;;;53.90;32.67;;;;;;;-146.26;100.00;59860.63;4987102;28;20042;-71
2023/04/09 01:05:05;;;;;;;53.30;31.23;;;;;;;-146.26;100.00;59860.63;4987831;28;20113;-71
2023/04/09 01:07:53;;;;;;;59.55;31.20;;;;;;;-146.26;100.00;59860.63;4987320;28;20049;-70
2023/04/09 01:10:39;;;;;;;58.53;32.92;;;;;;;-146.26;100.00;59860.63;4987562;28;20040;-71
2023/04/09 01:13:12;;;;;;;48.17;31.63;;;;;;;-146.26;100.00;59860.63;4980952;28;20137;-74
2023/04/09 01:15:49;;;;;;;57.65;36.10;;;;;;;-146.26;100.00;59860.63;4987275;28;20506;-73
2023/04/09 01:18:31;;;;;;;55.72;32.45;;;;;;;-146.26;100.00;59860.63;4985748;28;20062;-73
2023/04/09 01:21:05;;;;;;;47.10;34.22;;;;;;;-146.26;100.00;59860.63;4987607;28;20049;-74
2023/04/09 01:23:54;;;;;;;48.78;30.33;;;;;;;-146.26;100.00;59860.63;4984251;28;20993;-73
2023/04/09 01:26:57;;;;;;;48.13;31.95;;;;;;;-146.26;100.00;59860.63;4987130;28;20073;-73
2023/04/09 01:29:24;;;;;;;46.95;27.50;;;;;;;-146.26;100.00;59860.63;4983113;28;20052;-72
2023/04/09 01:31:52;;;;;;;51.60;32.67;;;;;;;-146.26;100.00;59860.63;4986822;28;20092;-72
2023/04/09 01:34:20;;;;;;;47.90;33.05;;;;;;;-146.26;100.00;59860.63;4987796;28;20027;-73
2023/04/09 01:36:50;;;;;;;46.53;29.30;;;;;;;-146.26;100.00;59860.63;4987109;28;20108;-73
2023/04/09 01:39:16;;;;;;;49.10;34.05;;;;;;;-146.26;100.00;59860.63;4987134;28;20045;-71
2023/04/09 01:41:42;;;;;;;49.13;34.30;;;;;;;-146.26;100.00;59860.63;4982214;28;20859;-72
2023/04/09 01:44:10;;;;;;;51.47;33.97;;;;;;;-146.26;100.00;59860.63;4986899;28;20447;-72
2023/04/09 01:46:37;;;;;;;49.78;35.47;;;;;;;-146.26;100.00;59860.63;4982213;28;20090;-72
2023/04/09 01:49:04;;;;;;;48.13;31.33;;;;;;;-146.26;100.00;59860.63;4988189;28;20069;-73
2023/04/09 01:51:32;;;;;;;42.70;29.70;;;;;;;-146.26;100.00;59860.63;4984356;28;20418;-71
2023/04/09 01:53:58;;;;;;;50.58;29.13;;;;;;;-146.26;100.00;59860.63;4986863;28;20045;-72
2023/04/09 01:56:24;;;;;;;49.55;32.47;;;;;;;-146.26;100.00;59860.63;4985968;28;20089;-71
2023/04/09 01:58:51;;;;;;;46.00;30.45;;;;;;;-146.26;100.00;59860.63;4980097;28;20387;-71
2023/04/09 02:01:26;;;;;;;53.22;32.15;;;;;;;-146.26;100.00;59860.63;4982430;28;20085;-71
2023/04/09 02:03:59;;;;;;;46.45;31.08;;;;;;;-146.26;100.00;59860.63;4987126;28;20066;-71
2023/04/09 02:06:31;;;;;;;42.67;29.95;;;;;;;-146.26;100.00;59860.63;4987059;28;20034;-73
2023/04/09 02:09:00;;;;;;;45.92;28.25;;;;;;;-146.26;100.00;59860.63;4987008;28;20050;-71
2023/04/09 02:11:28;;;;;;;54.40;34.83;;;;;;;-146.26;100.00;59860.63;4985946;28;20086;-71
2023/04/09 02:13:55;;;;;;;51.08;32.03;;;;;;;-146.26;100.00;59860.63;4979753;28;20046;-71
2023/04/09 02:16:22;;;;;;;52.58;32.20;;;;;;;-146.26;100.00;59860.63;4987117;28;20085;-73
2023/04/09 02:19:00;;;;;;;43.03;29.38;;;;;;;-146.26;100.00;59860.63;4985553;28;20054;-71
2023/04/09 02:21:27;;;;;;;45.42;31.08;;;;;;;-146.26;100.00;59860.63;4990809;28;20058;-72
2023/04/09 02:23:54;;;;;;;52.30;30.88;;;;;;;-146.26;100.00;59860.63;4979573;28;20498;-71
2023/04/09 02:26:20;;;;;;;49.25;30.98;;;;;;;-146.26;100.00;59860.63;4985987;28;20050;-72
2023/04/09 02:28:45;;;;;;;49.17;31.48;;;;;;;-146.26;100.00;59860.63;4986091;28;20054;-72
2023/04/09 02:31:11;;;;;;;44.58;29.23;;;;;;;-146.26;100.00;59860.63;4985605;28;20034;-72
2023/04/09 02:33:36;;;;;;;48.40;28.95;;;;;;;-146.26;100.00;59860.63;4984071;28;20051;-71
2023/04/09 02:36:02;;;;;;;44.40;29.05;;;;;;;-146.26;100.00;59860.63;4984933;28;20479;-72
2023/04/09 02:38:27;;;;;;;48.00;28.02;;;;;;;-146.26;100.00;59860.63;4981618;28;20046;-71
2023/04/09 02:40:53;;;;;;;43.47;28.05;;;;;;;-146.26;100.00;59860.63;4988902;28;20185;-72
2023/04/09 02:43:20;;;;;;;49.13;30.15;;;;;;;-146.26;100.00;59860.63;4986298;28;20026;-71
2023/04/09 02:45:45;;;;;;;35.60;25.40;;;;;;;-146.26;100.00;59860.63;4986766;28;20053;-71
2023/04/09 02:48:11;;;;;;;47.80;28.42;;;;;;;-146.26;100.00;59860.63;4986221;28;20042;-71
2023/04/09 02:50:36;;;;;;;46.47;29.15;;;;;;;-146.26;100.00;59860.63;4993970;28;20054;-72
2023/04/09 02:53:02;;;;;;;45.35;30.00;;;;;;;-146.26;100.00;59860.63;4988710;28;20125;-72
2023/04/09 02:55:27;;;;;;;39.53;26.13;;;;;;;-146.26;100.00;59860.63;4989728;28;20053;-72
2023/04/09 02:57:53;;;;;;;47.83;30.27;;;;;;;-146.26;100.00;59860.63;4990663;28;20030;-72
2023/04/09 03:00:18;;;;;;;46.15;29.98;;;;;;;-146.26;100.00;59860.63;4989737;28;20439;-72
2023/04/09 03:02:44;;;;;;;42.13;28.15;;;;;;;-146.26;100.00;59860.63;4990062;28;20042;-71
2023/04/09 03:05:11;;;;;;;46.17;27.00;;;;;;;-146.26;100.00;59860.63;4989825;28;20038;-73
2023/04/09 03:07:36;;;;;;;48.55;29.80;;;;;;;-146.26;100.00;59860.63;4989255;28;20419;-72
2023/04/09 03:10:02;;;;;;;43.58;29.25;;;;;;;-146.26;100.00;59860.63;4989690;28;20130;-72
2023/04/09 03:12:27;;;;;;;42.13;30.13;;;;;;;-146.26;100.00;59860.63;4989239;28;20041;-71
2023/04/09 03:14:53;;;;;;;46.72;29.05;;;;;;;-146.26;100.00;59860.63;4989695;28;20407;-71
2023/04/09 03:17:18;;;;;;;41.10;28.65;;;;;;;-146.26;100.00;59860.63;4989282;28;20044;-71
2023/04/09 03:19:44;;;;;;;46.97;28.27;;;;;;;-146.26;100.00;59860.63;4987619;28;20617;-72
2023/04/09 03:22:10;;;;;;;38.15;27.27;;;;;;;-146.26;100.00;59860.63;4990451;28;20037;-72
2023/04/09 03:24:36;;;;;;;49.97;29.90;;;;;;;-146.26;100.00;59860.63;4989263;28;20205;-72
2023/04/09 03:27:01;;;;;;;46.53;28.23;;;;;;;-146.26;100.00;59860.63;4988378;28;20479;-72
2023/04/09 03:29:27;;;;;;;41.97;30.38;;;;;;;-146.26;100.00;59860.63;4989617;28;20092;-72
2023/04/09 03:31:52;;;;;;;50.35;29.27;;;;;;;-146.26;100.00;59860.63;4989411;28;20043;-72
2023/04/09 03:34:18;;;;;;;45.75;27.42;;;;;;;-146.26;100.00;59860.63;4982141;28;20065;-72
2023/04/09 03:36:43;;;;;;;40.88;30.15;;;;;;;-146.26;100.00;59860.63;4988907;28;20133;-72
2023/04/09 03:39:08;;;;;;;45.08;27.67;;;;;;;-146.26;100.00;59860.63;4986758;28;20130;-71
2023/04/09 03:41:34;;;;;;;43.20;26.63;;;;;;;-146.26;100.00;59860.63;4984918;28;20201;-71
2023/04/09 03:43:59;;;;;;;47.17;29.95;;;;;;;-146.26;100.00;59860.63;4989201;28;20053;-71
2023/04/09 03:46:26;;;;;;;45.88;27.30;;;;;;;-146.26;100.00;59860.63;4984854;28;20023;-71
2023/04/09 03:48:51;;;;;;;44.28;28.60;;;;;;;-146.26;100.00;59860.63;4990150;28;20022;-72
2023/04/09 03:51:17;;;;;;;49.13;29.52;;;;;;;-146.26;100.00;59860.63;4988573;28;20038;-71
2023/04/09 03:53:43;;;;;;;43.92;27.83;;;;;;;-146.26;100.00;59860.63;4989168;28;20617;-71
2023/04/09 03:56:09;;;;;;;44.88;29.55;;;;;;;-146.26;100.00;59860.63;4989234;28;20051;-71
2023/04/09 03:58:36;;;;;;;39.50;25.58;;;;;;;-146.26;100.00;59860.63;4988720;28;20026;-71
2023/04/09 04:01:02;;;;;;;48.03;31.20;;;;;;;-146.26;100.00;59860.63;4989173;28;20042;-71
2023/04/09 04:03:28;;;;;;;44.65;28.02;;;;;;;-146.26;100.00;59860.63;4988929;28;20038;-71
2023/04/09 04:05:58;;;;;;;44.13;30.33;;;;;;;-146.26;100.00;59860.63;4988637;28;20101;-71
2023/04/09 04:08:24;;;;;;;40.58;26.70;;;;;;;-146.26;100.00;59860.63;4988853;28;20050;-72
2023/04/09 04:10:49;;;;;;;42.28;28.35;;;;;;;-146.26;100.00;59860.63;4987725;28;20034;-72
2023/04/09 04:13:15;;;;;;;43.75;27.60;;;;;;;-146.26;100.00;59860.63;4989287;28;20061;-72
2023/04/09 04:15:41;;;;;;;43.78;28.35;;;;;;;-146.26;100.00;59860.63;4986349;28;20042;-71
2023/04/09 04:18:07;;;;;;;42.97;29.45;;;;;;;-146.26;100.00;59860.63;4979915;28;20046;-72
2023/04/09 04:20:32;;;;;;;46.83;30.48;;;;;;;-146.26;100.00;59860.63;4986726;28;20434;-72
2023/04/09 04:22:58;;;;;;;41.00;26.75;;;;;;;-146.26;100.00;59860.63;4991955;28;20069;-71
2023/04/09 04:25:23;;;;;;;47.03;29.90;;;;;;;-146.26;100.00;59860.63;4986508;28;20440;-71
2023/04/09 04:27:49;;;;;;;43.15;27.88;;;;;;;-146.26;100.00;59860.63;4989252;28;20045;-72
2023/04/09 04:30:14;;;;;;;41.40;27.00;;;;;;;-146.26;100.00;59860.63;4988083;28;20402;-71
2023/04/09 04:32:40;;;;;;;43.72;27.67;;;;;;;-146.26;100.00;59860.63;4988584;28;20038;-71
2023/04/09 04:35:06;;;;;;;39.65;27.48;;;;;;;-146.26;100.00;59860.63;5019279;28;20057;-73
2023/04/09 04:37:31;;;;;;;40.92;25.20;;;;;;;-146.26;100.00;59860.63;4988438;28;20444;-72
2023/04/09 04:39:57;;;;;;;43.03;28.17;;;;;;;-146.26;100.00;59860.63;4988394;28;20503;-72
2023/04/09 04:42:22;;;;;;;43.55;27.33;;;;;;;-146.26;100.00;59860.63;4997110;28;20039;-71
2023/04/09 04:44:48;;;;;;;39.25;26.73;;;;;;;-146.26;100.00;59860.63;4972764;28;20866;-72
2023/04/09 04:47:13;;;;;;;41.53;27.65;;;;;;;-146.26;100.00;59860.63;4968372;28;20054;-72
2023/04/09 04:49:39;;;;;;;46.35;26.67;;;;;;;-146.26;100.00;59860.63;4966592;28;20041;-72
2023/04/09 04:52:05;;;;;;;39.97;27.25;;;;;;;-146.26;100.00;59860.63;4969255;28;20446;-72
2023/04/09 04:54:30;;;;;;;38.75;27.40;;;;;;;-146.26;100.00;59860.63;4968203;28;20035;-72
2023/04/09 04:56:56;;;;;;;40.28;27.88;;;;;;;-146.26;100.00;59860.63;4968451;28;20687;-71
2023/04/09 04:59:21;;;;;;;45.38;26.17;;;;;;;-146.26;100.00;59860.63;4976077;28;20048;-71
2023/04/09 05:01:47;;;;;;;39.75;23.83;;;;;;;-146.26;100.00;59860.63;4987188;28;20550;-71
2023/04/09 05:04:12;;;;;;;41.17;29.05;;;;;;;-146.26;100.00;59860.63;4986587;28;20124;-71
2023/04/09 05:06:38;;;;;;;38.97;24.27;;;;;;;-146.26;100.00;59860.63;4987825;28;20142;-72
2023/04/09 05:09:03;;;;;;;40.38;26.80;;;;;;;-146.26;100.00;59860.63;4987235;28;20046;-73
2023/04/09 05:11:29;;;;;;;44.13;26.10;;;;;;;-146.26;100.00;59860.63;4986055;28;20114;-72
2023/04/09 05:13:54;;;;;;;45.65;28.20;;;;;;;-146.26;100.00;59860.63;4987909;28;20042;-72
2023/04/09 05:16:20;;;;;;;52.50;40.80;;;;;;;-146.26;100.00;59860.63;4991149;28;20052;-72
2023/04/09 05:18:46;;;;;;;36.80;23.67;;;;;;;-146.26;100.00;59860.63;4989093;28;20402;-72
2023/04/09 05:21:12;;;;;;;57.85;28.75;;;;;;;-146.26;100.00;59860.63;5017607;28;20043;-71
2023/04/09 05:23:37;;;;;;;40.95;26.55;;;;;;;-146.26;100.00;59860.63;4992389;28;20421;-71
2023/04/09 05:26:03;;;;;;;54.42;44.15;;;;;;;-146.26;100.00;59860.63;4982748;28;20043;-72
2023/04/09 05:28:29;;;;;;;60.10;44.60;;;;;;;-146.26;100.00;59860.63;4984996;28;20058;-73
2023/04/09 05:30:56;;;;;;;51.80;43.55;;;;;;;-146.26;100.00;59860.63;4987930;28;20029;-72
2023/04/09 05:33:21;;;;;;;54.13;44.83;;;;;;;-146.26;100.00;59860.63;4986118;28;20054;-71
2023/04/09 05:35:46;;;;;;;52.70;43.28;;;;;;;-146.26;100.00;59860.63;4987325;28;20050;-71
2023/04/09 05:38:12;;;;;;;51.55;43.97;;;;;;;-146.26;100.00;59860.63;4985371;28;20507;-72
2023/04/09 05:40:38;;;;;;;54.38;43.10;;;;;;;-146.26;100.00;59860.63;4983875;28;20089;-71
2023/04/09 05:43:04;;;;;;;58.25;43.92;;;;;;;-146.26;100.00;59860.63;4982861;28;20547;-72
2023/04/09 05:45:30;;;;;;;53.28;44.55;;;;;;;-146.26;100.00;59860.63;4984812;28;20050;-72
2023/04/09 05:47:55;;;;;;;62.97;46.80;;;;;;;-146.26;100.00;59860.63;4980456;28;20061;-72
2023/04/09 05:50:21;;;;;;;52.05;41.63;;;;;;;-146.26;100.00;59860.63;4985035;28;20061;-75
2023/04/09 05:52:47;;;;;;;62.15;47.75;;;;;;;-146.26;100.00;59860.63;4985484;28;20506;-74
2023/04/09 05:55:12;;;;;;;61.00;43.15;;;;;;;-146.26;100.00;59860.63;4987384;28;20125;-72
2023/04/09 05:57:38;;;;;;;60.35;45.75;;;;;;;-146.26;100.00;59860.63;4986469;28;20046;-73
2023/04/09 06:00:04;;;;;;;60.08;45.08;;;;;;;-146.26;100.00;59860.63;4986527;28;20042;-72
2023/04/09 06:02:30;;;;;;;56.95;46.50;;;;;;;-146.26;100.00;59860.63;4986071;28;20051;-72
2023/04/09 06:04:56;;;;;;;61.35;44.42;;;;;;;-146.26;100.00;59860.63;4982382;28;20049;-72
2023/04/09 06:07:21;;;;;;;52.55;40.92;;;;;;;-146.26;100.00;59860.63;4983836;28;20030;-73
2023/04/09 06:09:47;;;;;;;46.92;37.80;;;;;;;-146.26;100.00;59860.63;4986541;28;20046;-73
2023/04/09 06:12:12;;;;;;;48.25;39.55;;;;;;;-146.26;100.00;59860.63;4982592;28;20054;-72
2023/04/09 06:14:38;;;;;;;47.22;36.97;;;;;;;-146.26;100.00;59860.63;4986684;28;20383;-72
2023/04/09 06:17:04;;;;;;;45.67;34.72;;;;;;;-146.26;100.00;59860.63;4986369;28;20514;-73
2023/04/09 06:19:30;;;;;;;45.70;35.53;;;;;;;-146.26;100.00;59860.63;4984641;28;20034;-73
2023/04/09 06:21:55;;;;;;;38.63;33.47;;;;;;;-146.26;100.00;59860.63;4987663;28;20057;-72
2023/04/09 06:24:21;;;;;;;43.25;32.53;;;;;;;-146.26;100.00;59860.63;4986001;28;20042;-72
2023/04/09 06:26:46;;;;;;;41.20;31.35;;;;;;;-146.26;100.00;59860.63;4973207;28;20484;-73
2023/04/09 06:29:12;;;;;;;45.97;34.58;;;;;;;-146.26;100.00;59860.63;4982072;28;20055;-72
2023/04/09 06:31:38;;;;;;;43.28;32.53;;;;;;;-146.26;100.00;59860.63;5007094;28;20066;-73
2023/04/09 06:34:03;;;;;;;39.53;31.98;;;;;;;-146.26;100.00;59860.63;4986290;28;20034;-72
2023/04/09 06:36:29;;;;;;;36.25;31.33;;;;;;;-146.26;100.00;59860.63;4983012;28;20042;-74
2023/04/09 06:38:55;;;;;;;40.50;32.20;;;;;;;-146.26;100.00;59860.63;4986765;28;20053;-72
2023/04/09 06:41:25;;;;;;;42.25;32.60;;;;;;;-146.26;100.00;59860.63;4990946;28;20054;-72
2023/04/09 06:43:51;;;;;;;44.55;31.58;;;;;;;-146.26;100.00;59860.63;4978577;28;20074;-73
2023/04/09 06:46:18;;;;;;;39.03;31.73;;;;;;;-146.26;100.00;59860.63;4983666;28;20394;-73
2023/04/09 06:48:44;;;;;;;52.75;33.83;;;;;;;-146.26;100.00;59860.63;4987339;28;20069;-73
2023/04/09 06:51:10;;;;;;;48.40;31.15;;;;;;;-146.26;100.00;59860.63;4982323;28;20132;-73
2023/04/09 06:53:37;;;;;;;45.17;31.33;;;;;;;-146.26;100.00;59860.63;4985491;28;20043;-73
2023/04/09 06:56:03;;;;;;;39.67;30.33;;;;;;;-146.26;100.00;59860.63;4982163;28;20130;-74
2023/04/09 06:58:28;;;;;;;36.40;30.80;;;;;;;-146.26;100.00;59860.63;5014599;28;20031;-74
2023/04/09 07:00:54;;;;;;;35.38;30.52;;;;;;;-146.26;100.00;59860.63;4982915;28;20042;-73
2023/04/09 07:03:19;;;;;;;42.25;29.58;;;;;;;-146.26;100.00;59860.63;4983511;28;20046;-73
2023/04/09 07:05:46;;;;;;;32.92;28.23;;;;;;;-146.26;100.00;59860.63;4988848;28;20038;-70
2023/04/09 07:08:11;;;;;;;35.05;28.35;;;;;;;-146.26;100.00;59860.63;4988996;28;20054;-73
2023/04/09 07:10:37;;;;;;;36.83;28.13;;;;;;;-146.26;100.00;59860.63;4985781;28;20506;-73
2023/04/09 07:13:02;;;;;;;37.83;27.98;;;;;;;-146.26;100.00;59860.63;4989338;28;20046;-72
2023/04/09 07:15:28;;;;;;;34.53;29.27;;;;;;;-146.26;100.00;59860.63;4987811;28;20046;-70
2023/04/09 07:17:53;;;;;;;38.83;27.27;;;;;;;-146.26;100.00;59860.63;4980790;28;20058;-73
2023/04/09 07:20:19;;;;;;;30.30;26.98;;;;;;;-146.26;100.00;59860.63;4978796;28;20650;-73
2023/04/09 07:22:44;;;;;;;29.85;23.58;;;;;;;-146.26;100.00;59860.63;4983058;28;20046;-72
2023/04/09 07:25:10;;;;;;;33.15;26.00;;;;;;;-146.26;100.00;59860.63;4983500;28;20030;-74
2023/04/09 07:27:36;;;;;;;39.90;28.50;;;;;;;-146.26;100.00;59860.63;4986014;28;20070;-74
2023/04/09 07:30:02;;;;;;;36.88;27.35;;;;;;;-146.26;100.00;59860.63;4979289;28;20058;-71
2023/04/09 07:32:27;;;;;;;35.60;26.98;;;;;;;-146.26;100.00;59860.63;4980920;28;20130;-74
2023/04/09 07:34:54;;;;;;;29.50;26.30;;;;;;;-146.26;100.00;59860.63;4979678;28;20487;-72
2023/04/09 07:37:20;;;;;;;35.25;26.55;;;;;;;-146.26;100.00;59860.63;4979146;28;20504;-72
2023/04/09 07:39:46;;;;;;;36.53;26.77;;;;;;;-146.26;100.00;59860.63;4984827;28;20065;-73
2023/04/09 07:42:12;;;;;;;31.85;27.92;;;;;;;-146.26;100.00;59860.63;4986861;28;20597;-73
2023/04/09 07:44:38;;;;;;;36.45;28.75;;;;;;;-146.26;100.00;59860.63;4984643;28;20141;-73
2023/04/09 07:47:05;;;;;;;35.60;27.95;;;;;;;-146.26;100.00;59860.63;4983693;28;20046;-75
2023/04/09 07:49:31;;;;;;;39.05;28.83;;;;;;;-146.26;100.00;59860.63;4984527;28;21390;-73
2023/04/09 07:51:58;;;;;;;37.05;28.17;;;;;;;-146.26;100.00;59860.63;4980102;28;20042;-74
2023/04/09 07:54:24;;;;;;;37.53;28.48;;;;;;;-146.26;100.00;59860.63;4979294;28;20475;-74
2023/04/09 07:56:50;;;;;;;40.72;27.75;;;;;;;-146.26;100.00;59860.63;4982766;28;20085;-74
2023/04/09 07:59:17;;;;;;;34.63;29.55;;;;;;;-146.26;100.00;59860.63;4985274;28;20089;-73
2023/04/09 08:01:43;;;;;;;35.40;25.95;;;;;;;-146.26;100.00;59860.63;4984501;28;20073;-73
2023/04/09 08:04:09;;;;;;;34.58;27.48;;;;;;;-146.26;100.00;59860.63;4984027;28;20060;-75
2023/04/09 08:06:35;;;;;;;39.95;28.63;;;;;;;-146.26;100.00;59860.63;4988538;28;20050;-74
2023/04/09 08:09:01;;;;;;;35.75;28.67;;;;;;;-146.26;100.00;59860.63;4988255;28;20545;-73
2023/04/09 08:11:27;;;;;;;37.33;29.00;;;;;;;-146.26;100.00;59860.63;4988171;28;20137;-73
2023/04/09 08:13:53;;;;;;;34.42;28.00;;;;;;;-146.26;100.00;59860.63;4980510;28;20557;-74
2023/04/09 08:16:20;;;;;;;37.78;28.40;;;;;;;-146.26;100.00;59860.63;4981399;28;20049;-73
2023/04/09 08:18:45;;;;;;;38.38;28.90;;;;;;;-146.26;100.00;59860.63;4974522;28;20363;-73
2023/04/09 08:21:11;;;;;;;32.83;27.50;;;;;;;-146.26;100.00;59860.63;4984286;28;20141;-73
2023/04/09 08:23:36;;;;;;;37.55;29.30;;;;;;;-146.26;100.00;59860.63;4985390;28;20085;-71
2023/04/09 08:26:02;;;;;;;32.45;24.98;;;;;;;-146.26;100.00;59860.63;4984538;28;20038;-71
2023/04/09 08:28:28;;;;;;;31.65;24.88;;;;;;;-146.26;100.00;59860.63;4986164;28;20038;-73
2023/04/09 08:30:53;;;;;;;34.58;27.58;;;;;;;-146.26;100.00;59860.63;4988311;28;20753;-73
2023/04/09 08:33:19;;;;;;;34.08;26.27;;;;;;;-146.26;100.00;59860.63;4984224;28;20112;-72
2023/04/09 08:35:44;;;;;;;31.58;23.65;;;;;;;-146.26;100.00;59860.63;4986834;28;20450;-72
2023/04/09 08:38:10;;;;;;;30.70;25.15;;;;;;;-146.26;100.00;59860.63;4986723;28;20059;-72
2023/04/09 08:40:36;;;;;;;28.95;23.13;;;;;;;-146.26;100.00;59860.63;4994415;28;20784;-73
2023/04/09 08:43:07;;;;;;;29.27;24.70;;;;;;;-146.26;100.00;59860.63;4985957;28;20042;-72
2023/04/09 08:45:33;;;;;;;30.02;22.65;;;;;;;-146.26;100.00;59860.63;4985554;28;20096;-72
2023/04/09 08:48:02;;;;;;;27.27;21.30;;;;;;;-146.26;100.00;59860.63;4992533;28;20038;-74
2023/04/09 08:50:34;;;;;;;24.85;21.35;;;;;;;-146.26;100.00;59860.63;4987350;28;20058;-71
2023/04/09 08:53:05;;;;;;;25.88;23.10;;;;;;;-146.26;100.00;59860.63;4987073;28;20046;-71
2023/04/09 08:55:33;;;;;;;28.60;22.02;;;;;;;-146.26;100.00;59860.63;4989802;28;20121;-71
2023/04/09 08:57:59;;;;;;;32.92;25.23;;;;;;;-146.26;100.00;59860.63;4999766;28;20034;-73
2023/04/09 09:00:25;;;;;;;28.33;23.17;;;;;;;-146.26;100.00;59860.63;4984520;28;20042;-72
2023/04/09 09:03:11;;;;;;;29.42;23.13;;;;;;;-146.26;100.00;59860.63;4987198;28;20108;-71
2023/04/09 09:05:42;;;;;;;28.05;23.95;;;;;;;-146.26;100.00;59860.63;5000507;28;20038;-73
2023/04/09 09:08:10;;;;;;;33.13;23.38;;;;;;;-146.26;100.00;59860.63;4984691;28;20046;-74
2023/04/09 09:10:43;;;;;;;33.50;25.67;;;;;;;-146.26;100.00;59860.63;4986123;28;20246;-73
2023/04/09 09:13:21;;;;;;;29.93;23.47;;;;;;;-146.26;100.00;59860.63;4990933;28;20046;-72
2023/04/09 09:15:49;;;;;;;27.90;23.00;;;;;;;-146.26;100.00;59860.63;4991445;28;20100;-71
2023/04/09 09:18:15;;;;;;;30.25;23.38;;;;;;;-146.26;100.00;59860.63;4987841;28;20055;-72
2023/04/09 09:20:41;;;;;;;24.63;22.02;;;;;;;-146.26;100.00;59860.63;4988171;28;20051;-71
2023/04/09 09:23:07;;;;;;;24.83;21.60;;;;;;;-146.26;100.00;59860.63;4988548;28;20058;-76
2023/04/09 09:25:40;;;;;;;26.33;21.40;;;;;;;-146.26;100.00;59860.63;4978156;28;20202;-72
2023/04/09 09:28:10;;;;;;;32.10;24.42;;;;;;;-146.26;100.00;59860.63;4977946;28;20093;-73
2023/04/09 09:30:38;;;;;;;28.42;21.13;;;;;;;-146.26;100.00;59860.63;4987927;28;20116;-72
2023/04/09 09:33:10;;;;;;;27.10;23.55;;;;;;;-146.26;100.00;59860.63;4983173;28;20174;-72
2023/04/09 09:35:50;;;;;;;31.55;22.27;;;;;;;-146.26;100.00;59860.63;4983836;28;20105;-73
2023/04/09 09:38:17;;;;;;;24.27;20.52;;;;;;;-146.26;100.00;59860.63;4978325;28;20046;-73
2023/04/09 09:40:43;;;;;;;28.42;20.38;;;;;;;-146.26;100.00;59860.63;4985303;28;20050;-72
2023/04/09 09:43:09;;;;;;;25.60;20.25;;;;;;;-146.26;100.00;59860.63;4983026;28;20048;-74
2023/04/09 09:45:36;;;;;;;22.85;20.33;;;;;;;-146.26;100.00;59860.63;5011546;28;20046;-73
2023/04/09 09:48:03;;;;;;;23.50;19.35;;;;;;;-146.26;100.00;59860.63;4983664;28;20046;-73
2023/04/09 09:50:30;;;;;;;27.20;18.23;;;;;;;-146.26;100.00;59860.63;4997314;28;20042;-71
2023/04/09 09:53:03;;;;;;;34.40;18.88;;;;;;;-146.26;100.00;59860.63;4983429;28;20108;-72
2023/04/09 09:55:33;;;;;;;22.42;18.05;;;;;;;-146.26;100.00;59860.63;4983306;28;20037;-74
2023/04/09 09:58:02;;;;;;;21.83;18.00;;;;;;;-146.26;100.00;59860.63;4985602;28;20126;-72
2023/04/09 10:00:31;;;;;;;22.80;17.70;;;;;;;-146.26;100.00;59860.63;4987126;28;20093;-72
2023/04/09 10:03:07;;;;;;;29.70;19.13;;;;;;;-146.26;100.00;59860.63;4986688;28;20054;-72
2023/04/09 10:05:35;;;;;;;22.60;18.48;;;;;;;-146.26;100.00;59860.63;4983349;28;20405;-71
2023/04/09 10:08:01;;;;;;;23.42;18.23;;;;;;;-146.26;100.00;59860.63;4981604;28;20046;-72
2023/04/09 10:10:28;;;;;;;22.65;17.70;;;;;;;-146.26;100.00;59860.63;4978658;28;20093;-72
2023/04/09 10:12:55;;;;;;;19.25;16.02;;;;;;;-146.26;100.00;59860.63;4989749;28;20030;-72
2023/04/09 10:15:20;;;;;;;24.85;17.92;;;;;;;-146.26;100.00;59860.63;4987515;28;20518;-73
2023/04/09 10:17:47;;;;;;;20.10;17.25;;;;;;;-146.26;100.00;59860.63;4984507;28;20046;-74
2023/04/09 10:20:23;;;;;;;22.80;17.95;;;;;;;-146.26;100.00;59860.63;4979056;28;20074;-74
2023/04/09 10:22:51;;;;;;;26.98;18.80;;;;;;;-146.26;100.00;59860.63;4984759;28;20046;-75
2023/04/09 10:25:17;;;;;;;23.17;17.58;;;;;;;-146.26;100.00;59860.63;4981843;28;20079;-72
2023/04/09 10:27:47;;;;;;;25.08;17.83;;;;;;;-146.26;100.00;59860.63;4986005;28;20049;-72
2023/04/09 10:30:32;;;;;;;26.27;17.42;;;;;;;-146.26;100.00;59860.63;4983945;28;20050;-72
2023/04/09 10:33:13;;;;;;;21.58;18.15;;;;;;;-146.26;100.00;59860.63;4987510;28;20125;-72
2023/04/09 10:35:38;;;;;;;25.58;16.70;;;;;;;-146.26;100.00;59860.63;4986436;28;20050;-72
2023/04/09 10:38:08;;;;;;;22.80;17.25;;;;;;;-146.26;100.00;59860.63;4990234;28;20042;-73
2023/04/09 10:40:38;;;;;;;18.55;16.20;;;;;;;-146.26;100.00;59860.63;4982656;28;20099;-72
2023/04/09 10:43:05;;;;;;;20.02;16.85;;;;;;;-146.26;100.00;59860.63;4985147;28;20035;-72
2023/04/09 10:45:41;;;;;;;23.40;18.30;;;;;;;-146.26;100.00;59860.63;4989957;28;20042;-73
2023/04/09 10:48:12;;;;;;;25.13;19.35;;;;;;;-146.26;100.00;59860.63;4984523;28;20068;-73
2023/04/09 10:50:39;;;;;;;25.77;20.55;;;;;;;-146.26;100.00;59860.63;4987306;28;20491;-72
2023/04/09 10:53:05;;;;;;;26.98;22.00;;;;;;;-146.26;100.00;59860.63;4985699;28;20047;-72
2023/04/09 10:55:41;;;;;;;22.08;19.67;;;;;;;-146.26;100.00;59860.63;4984017;28;20046;-71